Time;durP1;ratioP1;P1;durP2;ratioP2;P2;SDS_P1;SDS_P2;PMS_P1;PMS_P2;Temp;Humidity;BMP_temperature;BMP_pressure;BME280_temperature;BME280_humidity;BME280_pressure;Samples;Min_cycle;Max_cycle;Signal;HPM_P1;HPM_P2
2023/12/12 00:00:38;;;;;;;18.80;16.00;;;;;;;19.24;25.04;100319.63;104976;1305;67737;-87
2023/12/12 00:03:03;;;;;;;19.70;16.40;;;;;;;19.23;25.15;100311.11;104998;1308;67754;-87
2023/12/12 00:05:29;;;;;;;19.30;15.90;;;;;;;19.24;25.14;100307.64;104867;1305;67633;-87
2023/12/12 00:07:55;;;;;;;22.10;16.60;;;;;;;19.23;25.12;100305.34;104924;1305;67695;-87
2023/12/12 00:10:21;;;;;;;19.60;16.70;;;;;;;19.23;25.02;100301.05;104908;1306;67790;-87
2023/12/12 00:12:47;;;;;;;18.20;16.20;;;;;;;19.23;25.19;100295.86;104999;1305;67071;-87
2023/12/12 00:15:12;;;;;;;19.90;16.50;;;;;;;19.22;25.12;100292.43;104887;1305;68411;-88
2023/12/12 00:17:38;;;;;;;18.30;15.90;;;;;;;19.21;25.03;100296.41;104850;1305;67177;-87
2023/12/12 00:20:08;;;;;;;19.90;17.10;;;;;;;19.21;25.09;100307.63;104915;1305;67670;-88
2023/12/12 00:22:36;;;;;;;19.70;15.90;;;;;;;19.20;25.12;100315.48;104922;1306;67099;-92
2023/12/12 00:25:02;;;;;;;20.50;16.50;;;;;;;19.20;25.06;100325.73;104823;1305;67820;-88
2023/12/12 00:27:28;;;;;;;19.10;16.40;;;;;;;19.20;25.11;100331.29;104878;1305;67469;-87
2023/12/12 00:29:55;;;;;;;20.30;17.00;;;;;;;19.20;25.10;100333.98;105020;1305;68175;-87
2023/12/12 00:32:20;;;;;;;21.00;17.00;;;;;;;19.20;25.06;100339.65;104854;1305;67751;-87
2023/12/12 00:34:46;;;;;;;20.00;16.10;;;;;;;19.20;25.14;100340.37;104806;1306;67621;-88
2023/12/12 00:37:12;;;;;;;20.20;16.10;;;;;;;19.20;25.05;100337.98;104508;1305;289435;-87
2023/12/12 00:39:41;;;;;;;19.20;16.30;;;;;;;19.19;25.03;100339.70;104923;1305;67687;-87
2023/12/12 00:42:06;;;;;;;19.30;16.20;;;;;;;19.18;25.05;100333.73;104699;1305;73352;-88
2023/12/12 00:44:35;;;;;;;21.00;17.40;;;;;;;19.18;25.11;100335.82;104982;1305;67733;-88
2023/12/12 00:47:01;;;;;;;19.40;16.40;;;;;;;19.18;25.11;100343.11;104971;1305;67667;-88
2023/12/12 00:49:30;;;;;;;19.10;16.80;;;;;;;19.17;24.97;100342.59;104858;1306;67778;-93
2023/12/12 00:51:55;;;;;;;19.50;16.10;;;;;;;19.17;25.07;100347.33;104798;1305;83085;-87
2023/12/12 00:54:21;;;;;;;21.10;17.20;;;;;;;19.17;25.10;100349.52;104810;1306;67540;-87
2023/12/12 00:56:47;;;;;;;19.10;16.10;;;;;;;19.16;25.08;100345.34;104961;1306;67725;-88
2023/12/12 00:59:14;;;;;;;19.90;17.00;;;;;;;19.16;25.12;100341.83;104879;1306;67048;-88
2023/12/12 01:01:40;;;;;;;18.10;15.90;;;;;;;19.16;25.04;100336.61;105006;1305;67637;-88
2023/12/12 01:04:07;;;;;;;18.40;16.00;;;;;;;19.16;25.11;100325.48;104789;1306;68220;-88
2023/12/12 01:06:33;;;;;;;19.80;16.70;;;;;;;19.15;25.03;100318.87;104958;1306;67069;-88
2023/12/12 01:08:58;;;;;;;19.90;16.40;;;;;;;19.15;25.10;100320.23;104797;1306;67837;-87
2023/12/12 01:11:24;;;;;;;19.40;16.70;;;;;;;19.14;25.00;100315.08;104880;1306;67786;-87
2023/12/12 01:13:50;;;;;;;20.90;16.00;;;;;;;19.14;25.01;100314.06;104929;1306;83076;-88
2023/12/12 01:18:56;;;;;;;19.50;16.60;;;;;;;19.13;25.07;100319.11;105054;1307;67818;-87
2023/12/12 01:21:21;;;;;;;18.50;15.70;;;;;;;19.12;25.03;100326.21;104817;1307;67099;-87
2023/12/12 01:23:48;;;;;;;18.90;15.80;;;;;;;19.12;25.02;100328.70;105028;1308;67621;-87
2023/12/12 01:26:14;;;;;;;18.10;15.50;;;;;;;19.12;24.98;100316.76;104764;1306;67173;-87
2023/12/12 01:28:40;;;;;;;17.50;15.60;;;;;;;19.11;24.95;100322.11;104748;1308;67626;-87
2023/12/12 01:31:06;;;;;;;18.10;15.60;;;;;;;19.11;25.07;100319.77;104831;1307;67577;-87
2023/12/12 01:33:31;;;;;;;18.50;15.50;;;;;;;19.11;24.93;100323.34;104912;1308;67545;-87
2023/12/12 01:35:57;;;;;;;17.70;14.80;;;;;;;19.10;24.89;100320.21;104999;1307;83947;-87
2023/12/12 01:38:23;;;;;;;18.50;15.20;;;;;;;19.10;24.97;100325.88;104692;1308;67675;-87
2023/12/12 01:40:48;;;;;;;17.10;15.20;;;;;;;19.09;24.98;100331.52;104867;1305;67565;-87
2023/12/12 01:43:24;;;;;;;16.40;14.40;;;;;;;19.09;24.90;100340.91;104775;1309;68208;-93
2023/12/12 01:45:50;;;;;;;17.60;15.50;;;;;;;19.09;25.00;100339.95;104796;1308;73974;-87
2023/12/12 01:48:15;;;;;;;16.70;14.70;;;;;;;19.07;24.92;100338.92;104777;1307;67710;-87
2023/12/12 01:50:41;;;;;;;16.60;14.70;;;;;;;19.07;24.93;100334.84;104785;1308;67191;-87
2023/12/12 01:53:07;;;;;;;16.90;14.90;;;;;;;19.07;24.95;100338.56;104605;1308;67312;-87
2023/12/12 01:55:33;;;;;;;17.80;14.70;;;;;;;19.06;24.92;100343.41;104663;1307;67167;-87
2023/12/12 01:57:59;;;;;;;16.70;14.90;;;;;;;19.06;24.94;100338.25;104663;1308;67682;-87
2023/12/12 02:00:24;;;;;;;18.10;14.90;;;;;;;19.06;25.08;100348.77;104581;1307;72510;-87
2023/12/12 02:02:51;;;;;;;17.10;14.20;;;;;;;19.06;24.86;100345.44;104549;1308;67733;-87
2023/12/12 02:05:16;;;;;;;16.00;14.30;;;;;;;19.06;25.02;100342.33;104653;1307;67543;-87
2023/12/12 02:07:42;;;;;;;17.30;14.20;;;;;;;19.05;25.00;100340.48;104833;1309;67600;-87
2023/12/12 02:10:17;;;;;;;18.10;14.70;;;;;;;19.04;24.96;100332.08;104607;1308;67842;-92
2023/12/12 02:12:42;;;;;;;16.00;13.90;;;;;;;19.04;25.00;100328.64;104742;1308;73482;-87
2023/12/12 02:15:08;;;;;;;15.60;13.50;;;;;;;19.03;24.97;100334.15;104828;1307;67689;-87
2023/12/12 02:17:37;;;;;;;15.70;13.90;;;;;;;19.03;24.99;100328.13;104645;1307;67109;-87
2023/12/12 02:20:03;;;;;;;16.30;14.40;;;;;;;19.03;24.94;100328.79;104769;1308;74556;-87
2023/12/12 02:22:29;;;;;;;15.10;13.50;;;;;;;19.03;24.90;100336.19;104650;1308;83238;-87
2023/12/12 02:24:55;;;;;;;15.30;13.70;;;;;;;19.02;24.93;100334.30;104563;1307;67164;-87
2023/12/12 02:27:39;;;;;;;15.30;13.60;;;;;;;19.01;24.92;100336.02;104779;1307;67645;-87
2023/12/12 02:30:06;;;;;;;15.70;13.60;;;;;;;19.01;24.98;100331.04;104544;1307;67708;-87
2023/12/12 02:32:31;;;;;;;14.30;12.70;;;;;;;19.01;24.98;100329.25;104584;1308;67819;-87
2023/12/12 02:34:57;;;;;;;15.40;13.40;;;;;;;19.00;24.95;100328.08;104558;1307;67638;-87
2023/12/12 02:37:23;;;;;;;15.20;13.60;;;;;;;19.00;25.02;100322.77;104778;1307;66991;-87
2023/12/12 02:39:48;;;;;;;14.50;13.00;;;;;;;18.99;25.08;100312.30;104558;1307;67773;-86
2023/12/12 02:42:14;;;;;;;17.10;12.80;;;;;;;18.99;24.97;100310.52;104788;1308;67751;-87
2023/12/12 02:44:40;;;;;;;15.60;13.70;;;;;;;18.99;24.92;100297.32;104532;1308;83079;-87
2023/12/12 02:47:05;;;;;;;15.10;13.50;;;;;;;18.99;24.98;100298.64;104703;1307;66981;-87
2023/12/12 02:49:33;;;;;;;14.70;13.10;;;;;;;18.99;25.00;100295.98;104759;1308;67711;-87
2023/12/12 02:52:08;;;;;;;15.00;13.40;;;;;;;18.98;25.10;100301.55;104538;1310;67717;-92
2023/12/12 02:54:33;;;;;;;14.70;13.10;;;;;;;18.98;25.04;100300.77;104598;1308;74231;-87
2023/12/12 02:56:59;;;;;;;15.00;13.00;;;;;;;18.98;25.09;100300.06;104449;1309;67186;-86
2023/12/12 02:59:25;;;;;;;14.50;13.00;;;;;;;18.97;25.06;100300.41;104589;1307;67695;-86
2023/12/12 03:01:50;;;;;;;14.60;13.10;;;;;;;18.97;25.16;100298.42;104533;1308;68239;-85
2023/12/12 03:04:16;;;;;;;14.90;13.30;;;;;;;18.97;25.08;100304.19;105063;1307;67512;-87
2023/12/12 03:06:42;;;;;;;14.80;12.90;;;;;;;18.96;25.10;100304.95;104775;1308;82974;-87
2023/12/12 03:09:07;;;;;;;14.60;13.00;;;;;;;18.97;25.05;100301.41;104559;1307;67894;-86
2023/12/12 03:11:34;;;;;;;14.00;12.50;;;;;;;18.96;25.19;100304.02;104808;1307;67191;-86
2023/12/12 03:14:00;;;;;;;15.10;12.90;;;;;;;18.96;25.18;100308.81;104819;1308;67911;-86
2023/12/12 03:16:26;;;;;;;15.70;13.60;;;;;;;18.96;25.21;100311.11;104810;1307;67684;-86
2023/12/12 03:19:00;;;;;;;14.80;13.30;;;;;;;18.96;25.28;100307.23;104487;1308;67065;-92
2023/12/12 03:21:26;;;;;;;15.20;13.10;;;;;;;18.96;25.29;100313.30;104958;1308;72819;-86
2023/12/12 03:23:52;;;;;;;15.00;12.90;;;;;;;18.95;25.29;100311.41;104794;1307;67659;-86
2023/12/12 03:26:17;;;;;;;14.70;13.10;;;;;;;18.95;25.39;100308.30;104663;1307;67696;-86
2023/12/12 03:28:43;;;;;;;17.00;13.80;;;;;;;18.95;25.37;100307.17;104560;1308;67601;-87
2023/12/12 03:31:09;;;;;;;14.70;13.00;;;;;;;18.95;25.40;100306.05;104802;1308;67551;-87
2023/12/12 03:33:34;;;;;;;15.90;13.60;;;;;;;18.95;25.49;100302.04;104609;1307;67737;-86
2023/12/12 03:36:00;;;;;;;15.60;13.30;;;;;;;18.95;25.54;100302.06;104655;1308;67704;-86
2023/12/12 03:38:25;;;;;;;15.40;13.70;;;;;;;18.95;25.51;100304.16;104500;1307;67745;-86
2023/12/12 03:40:51;;;;;;;16.60;13.60;;;;;;;18.95;25.62;100305.11;104561;1309;67700;-87
2023/12/12 03:43:17;;;;;;;16.10;13.20;;;;;;;18.95;25.58;100304.80;104467;1313;67657;-86
2023/12/12 03:48:21;;;;;;;25.60;14.00;;;;;;;18.94;25.68;100315.67;105392;1308;74420;-86
2023/12/12 03:50:49;;;;;;;30.60;14.20;;;;;;;18.93;25.85;100314.75;104998;1305;67096;-87
2023/12/12 03:53:15;;;;;;;21.00;13.90;;;;;;;18.93;25.85;100308.11;104994;1308;72455;-87
2023/12/12 03:55:41;;;;;;;18.80;13.30;;;;;;;18.93;25.89;100302.09;105125;1306;67758;-87
2023/12/12 03:58:07;;;;;;;34.40;14.70;;;;;;;18.92;26.03;100300.91;104819;1308;67726;-87
2023/12/12 04:00:32;;;;;;;35.60;15.00;;;;;;;18.93;26.10;100303.77;104733;1307;67748;-87
2023/12/12 04:02:58;;;;;;;33.20;14.10;;;;;;;18.92;26.14;100302.29;104743;1308;67703;-86
2023/12/12 04:05:23;;;;;;;20.80;12.90;;;;;;;18.92;26.21;100303.57;105106;1307;67737;-86
2023/12/12 04:07:49;;;;;;;15.70;10.40;;;;;;;18.92;26.42;100288.32;105230;1308;67906;-87
2023/12/12 04:10:15;;;;;;;12.40;10.90;;;;;;;18.95;26.89;100273.63;104858;1307;67697;-87
2023/12/12 04:12:49;;;;;;;14.60;11.30;;;;;;;18.97;27.00;100270.38;104657;1307;67654;-92
2023/12/12 04:15:15;;;;;;;20.40;12.80;;;;;;;18.98;27.04;100268.24;104832;1306;73489;-86
2023/12/12 04:17:42;;;;;;;54.80;15.00;;;;;;;18.99;27.06;100278.60;105192;1308;67609;-86
2023/12/12 04:20:08;;;;;;;38.70;15.50;;;;;;;18.99;27.45;100275.30;105187;1306;66937;-86
2023/12/12 04:22:33;;;;;;;25.60;12.30;;;;;;;18.98;28.02;100272.23;104586;1309;67007;-86
2023/12/12 04:24:59;;;;;;;33.30;12.00;;;;;;;19.00;28.27;100271.56;105158;1307;67571;-86
2023/12/12 04:27:25;;;;;;;37.50;13.30;;;;;;;19.01;28.47;100274.34;104577;1308;67857;-86
2023/12/12 04:29:50;;;;;;;36.40;12.40;;;;;;;19.04;28.85;100273.57;105073;1308;67676;-86
2023/12/12 04:32:16;;;;;;;39.50;13.10;;;;;;;19.07;29.46;100276.60;104674;1309;74337;-86
2023/12/12 04:34:42;;;;;;;39.20;13.20;;;;;;;19.12;30.10;100279.17;104628;1308;68031;-86
2023/12/12 04:37:08;;;;;;;34.70;13.20;;;;;;;19.14;30.36;100279.69;104595;1306;67043;-86
2023/12/12 04:39:42;;;;;;;47.30;14.70;;;;;;;19.15;30.78;100282.81;104848;1306;67646;-90
2023/12/12 04:42:08;;;;;;;51.40;15.50;;;;;;;19.15;31.26;100281.43;104846;1308;67758;-85
2023/12/12 04:44:34;;;;;;;56.90;15.70;;;;;;;19.16;31.65;100280.27;104867;1307;67751;-86
2023/12/12 04:46:59;;;;;;;45.30;16.10;;;;;;;19.16;32.10;100278.38;104642;1307;67743;-86
2023/12/12 04:49:25;;;;;;;48.60;20.70;;;;;;;19.15;32.08;100276.17;104653;1307;69048;-86
2023/12/12 04:51:51;;;;;;;46.50;22.30;;;;;;;19.14;31.96;100275.20;104847;1307;68222;-86
2023/12/12 04:54:16;;;;;;;36.90;19.50;;;;;;;19.12;31.78;100274.12;104744;1307;75593;-87
2023/12/12 04:56:43;;;;;;;35.20;20.30;;;;;;;19.09;31.69;100269.32;104986;1308;67449;-87
2023/12/12 04:59:08;;;;;;;35.80;20.20;;;;;;;19.07;31.46;100267.27;104599;1307;67585;-87
2023/12/12 05:01:34;;;;;;;45.40;19.50;;;;;;;19.07;31.36;100271.30;104595;1309;67129;-86
2023/12/12 05:04:00;;;;;;;32.30;18.30;;;;;;;19.08;31.27;100268.24;104661;1307;67643;-87
2023/12/12 05:06:34;;;;;;;31.10;18.10;;;;;;;19.11;31.11;100272.19;104609;1307;67765;-91
2023/12/12 05:09:00;;;;;;;32.80;16.40;;;;;;;19.13;31.08;100275.50;104604;1308;72803;-87
2023/12/12 05:11:26;;;;;;;33.30;17.00;;;;;;;19.15;30.90;100283.36;104531;1308;67841;-86
2023/12/12 05:13:51;;;;;;;28.30;15.30;;;;;;;19.17;30.85;100292.50;104527;1310;67666;-87
2023/12/12 05:16:17;;;;;;;31.10;15.30;;;;;;;19.20;30.76;100296.05;104754;1308;67159;-89
2023/12/12 05:18:43;;;;;;;28.40;15.60;;;;;;;19.22;30.64;100297.73;104796;1308;67826;-89
2023/12/12 05:21:21;;;;;;;28.10;14.60;;;;;;;19.24;30.56;100294.02;104825;1307;67613;-90
2023/12/12 06:29:07;;;;;;;20.20;15.00;;;;;;;19.49;30.38;100310.96;87163;1299;67167;-87
2023/12/12 06:31:32;;;;;;;25.50;15.40;;;;;;;19.53;30.34;100315.30;104377;1308;67901;-87
2023/12/12 06:34:03;;;;;;;23.20;15.80;;;;;;;19.57;30.43;100315.38;104826;1301;67684;-86
2023/12/12 07:08:46;;;;;;;18.10;14.80;;;;;;;20.05;31.27;100324.55;105005;1308;84731;-91
2023/12/12 07:54:24;;;;;;;27.40;17.70;;;;;;;20.18;29.85;100364.57;104919;1308;81755;-92
2023/12/12 07:57:07;;;;;;;33.30;17.20;;;;;;;20.13;29.77;100362.87;104675;1308;72777;-90
2023/12/12 07:59:33;;;;;;;29.30;17.00;;;;;;;20.10;29.72;100363.02;104403;1308;67996;-89
2023/12/12 08:07:56;;;;;;;;;;;;;;;20.12;29.72;100364.70;102001;1305;80308;-92
2023/12/12 08:10:43;;;;;;;26.30;16.10;;;;;;;20.10;29.84;100362.00;104726;1305;72345;-90
2023/12/12 08:56:20;;;;;;;40.40;18.50;;;;;;;20.37;29.46;100314.20;86720;1305;80326;-90
2023/12/12 08:58:51;;;;;;;33.20;18.00;;;;;;;20.42;29.50;100318.77;104708;1307;72387;-90
2023/12/12 09:04:28;;;;;;;31.20;17.90;;;;;;;20.53;29.92;100305.61;104850;1305;69172;-89
2023/12/12 09:06:59;;;;;;;37.20;18.20;;;;;;;20.57;30.07;100300.48;104798;1308;74656;-90
2023/12/12 09:09:27;;;;;;;28.00;17.60;;;;;;;20.58;30.06;100294.27;105041;1307;82860;-91
2023/12/12 09:46:11;;;;;;;25.60;16.30;;;;;;;20.73;30.02;100307.33;82346;1326;66060;-92
2023/12/12 10:05:37;;;;;;;26.70;16.00;;;;;;;20.84;30.09;100280.13;86166;1303;67408;-91
2023/12/12 10:08:03;;;;;;;27.60;21.00;;;;;;;20.81;30.08;100279.42;104697;1305;74696;-90
2023/12/12 10:10:32;;;;;;;26.00;19.80;;;;;;;20.58;29.84;100285.02;104777;1307;67799;-91
2023/12/12 10:12:58;;;;;;;30.30;19.20;;;;;;;20.26;29.67;100278.49;104813;1308;72770;-89
2023/12/12 10:18:22;;;;;;;29.80;20.20;;;;;;;19.82;30.05;100282.88;87526;1309;67214;-90
2023/12/12 10:20:51;;;;;;;32.90;20.80;;;;;;;19.66;30.17;100279.52;104858;1309;74426;-91
2023/12/12 10:29:45;;;;;;;29.40;20.00;;;;;;;19.30;30.53;100272.41;104804;1299;67927;31
2023/12/12 10:32:26;;;;;;;37.00;22.60;;;;;;;19.21;30.76;100279.77;104772;1308;67695;-89
2023/12/12 10:34:52;;;;;;;34.60;22.70;;;;;;;19.15;30.96;100281.84;104934;1305;74311;-89
2023/12/12 10:37:18;;;;;;;42.00;25.00;;;;;;;19.12;31.08;100279.73;104697;1308;68493;-88
2023/12/12 10:39:44;;;;;;;34.20;24.60;;;;;;;19.09;31.16;100279.67;104557;1308;67456;-88
2023/12/12 10:42:10;;;;;;;29.00;21.40;;;;;;;19.03;31.28;100276.06;104499;1306;68343;-87
2023/12/12 10:44:36;;;;;;;29.00;22.40;;;;;;;18.90;31.30;100274.39;104528;1302;67413;-87
2023/12/12 11:03:03;;;;;;;;;;;;;;;17.99;32.03;100265.79;84026;1305;73275;-90
2023/12/12 11:25:10;;;;;;;27.30;16.10;;;;;;;18.02;32.90;100262.04;105236;1305;71947;-92
2023/12/12 11:45:02;;;;;;;23.30;15.70;;;;;;;19.30;32.24;100248.69;90744;1299;66153;-89
2023/12/12 11:48:27;;;;;;;;;;;;;;;;;;;;;
2023/12/12 11:51:53;;;;;;;29.60;16.00;;;;;;;19.60;32.01;100237.96;105198;1299;73916;31
2023/12/12 12:50:46;;;;;;;41.10;15.70;;;;;;;20.43;31.11;100250.32;105221;1302;68248;-91
2023/12/12 13:08:27;;;;;;;24.50;15.70;;;;;;;20.63;31.54;100268.27;91096;1304;552396;-92
2023/12/12 13:25:57;;;;;;;32.50;15.80;;;;;;;20.63;31.06;100290.06;82836;1311;1433374;-91
2023/12/12 13:44:51;;;;;;;48.10;17.60;;;;;;;20.67;31.09;100307.44;102771;1304;80532;-89
2023/12/12 13:47:18;;;;;;;36.20;16.80;;;;;;;20.68;31.01;100308.41;104685;1304;72711;-90
2023/12/12 13:56:32;;;;;;;26.40;15.20;;;;;;;20.69;31.00;100320.48;104944;1305;73738;-90
2023/12/12 14:05:36;;;;;;;40.00;16.20;;;;;;;20.73;31.24;100314.22;105171;1302;67059;-91
2023/12/12 14:12:01;;;;;;;28.70;16.60;;;;;;;20.71;31.15;100316.02;82994;1334;73454;-92
2023/12/12 14:20:55;;;;;;;29.00;17.30;;;;;;;20.70;30.91;100308.25;103421;1305;67251;-89
2023/12/12 14:36:21;;;;;;;29.70;17.50;;;;;;;20.71;30.78;100311.73;97425;1299;68494;-89
2023/12/12 14:45:43;;;;;;;29.30;17.80;;;;;;;20.68;30.60;100323.86;98827;1299;80604;-90
2023/12/12 14:48:12;;;;;;;35.10;18.30;;;;;;;20.66;30.52;100334.48;105097;1305;73625;-90
2023/12/12 14:56:54;;;;;;;72.00;20.40;;;;;;;20.63;30.42;100313.58;95135;1309;75905;-91
2023/12/12 15:02:41;;;;;;;68.00;18.70;;;;;;;20.64;30.17;100320.89;105129;1302;71879;-91
2023/12/12 16:00:37;;;;;;;59.50;19.30;;;;;;;20.76;29.72;100369.10;85660;1301;73322;-89
2023/12/12 16:03:03;;;;;;;50.40;18.40;;;;;;;20.76;29.57;100371.40;104408;1306;67143;-88
2023/12/12 16:14:58;;;;;;;67.80;21.10;;;;;;;20.79;29.35;100387.52;96450;1304;73766;-91
2023/12/12 16:23:58;;;;;;;63.10;30.80;;;;;;;20.77;29.46;100399.99;85191;1301;68849;-92
2023/12/12 16:45:35;;;;;;;47.00;23.20;;;;;;;20.70;29.26;100394.80;102970;1305;75534;-88
2023/12/12 16:48:01;;;;;;;66.40;24.50;;;;;;;20.70;29.23;100394.20;104867;1305;68088;-89
2023/12/12 16:50:27;;;;;;;69.30;23.30;;;;;;;20.69;29.35;100397.42;104799;1306;67149;-89
2023/12/12 16:52:52;;;;;;;56.60;23.80;;;;;;;20.69;29.35;100401.20;104629;1305;67260;-88
2023/12/12 16:55:18;;;;;;;55.70;22.70;;;;;;;20.70;29.42;100396.24;104798;1305;69159;-87
2023/12/12 16:57:44;;;;;;;52.70;22.00;;;;;;;20.70;29.17;100399.26;104699;1305;67823;-88
2023/12/12 17:00:10;;;;;;;47.60;21.40;;;;;;;20.71;29.33;100397.21;104660;1305;71431;-88
2023/12/12 17:02:40;;;;;;;42.10;21.40;;;;;;;20.72;29.28;100397.46;104805;1305;67029;-88
2023/12/12 17:05:06;;;;;;;42.90;21.90;;;;;;;20.72;29.43;100404.67;104769;1305;67737;-88
2023/12/12 17:07:32;;;;;;;38.60;19.80;;;;;;;20.73;29.38;100406.41;104763;1306;67798;-88
2023/12/12 17:10:07;;;;;;;34.00;21.50;;;;;;;20.72;29.39;100401.86;104612;1305;67731;-92
2023/12/12 17:12:33;;;;;;;46.40;22.00;;;;;;;20.71;29.35;100397.06;104811;1308;72455;-88
2023/12/12 17:14:59;;;;;;;42.90;23.90;;;;;;;20.69;29.30;100399.06;104667;1309;67921;-88
2023/12/12 17:17:24;;;;;;;46.00;22.80;;;;;;;20.67;29.10;100398.45;104663;1308;68082;-88
2023/12/12 17:19:52;;;;;;;37.40;23.10;;;;;;;20.67;29.26;100397.11;104661;1309;67207;-87
2023/12/12 17:22:18;;;;;;;38.80;23.10;;;;;;;20.65;29.30;100387.52;104709;1309;68298;-88
2023/12/12 17:27:24;;;;;;;45.00;23.60;;;;;;;20.62;29.11;100382.48;104526;1308;68085;-88
2023/12/12 17:29:50;;;;;;;39.50;23.50;;;;;;;20.60;29.18;100384.08;104496;1308;67846;-88
2023/12/12 17:32:16;;;;;;;42.10;23.40;;;;;;;20.57;29.03;100383.16;104359;1312;67928;-88
2023/12/12 17:34:45;;;;;;;37.40;22.30;;;;;;;20.55;29.10;100384.23;104419;1314;67865;-88
2023/12/12 17:37:12;;;;;;;36.80;22.00;;;;;;;20.53;29.21;100383.71;104256;1308;72619;-88
2023/12/12 17:39:37;;;;;;;37.60;21.80;;;;;;;20.52;29.11;100384.08;104378;1308;67813;-88
2023/12/12 17:42:12;;;;;;;40.70;21.90;;;;;;;20.51;29.22;100382.44;104305;1307;68498;-87
2023/12/12 17:44:37;;;;;;;35.60;20.70;;;;;;;20.51;29.14;100372.31;104534;1308;67685;-88
2023/12/12 17:47:03;;;;;;;39.60;20.30;;;;;;;20.53;29.25;100375.38;104587;1308;67890;-88
2023/12/12 17:49:29;;;;;;;30.00;21.00;;;;;;;20.54;29.14;100376.36;104507;1311;67780;-88
2023/12/12 17:51:55;;;;;;;34.80;21.20;;;;;;;20.56;29.10;100374.66;104401;1308;67801;-88
2023/12/12 17:54:20;;;;;;;38.80;21.30;;;;;;;20.56;29.10;100371.96;104780;1307;67776;-87
2023/12/12 17:56:47;;;;;;;34.70;20.30;;;;;;;20.57;29.07;100372.02;104490;1308;67153;-87
2023/12/12 17:59:13;;;;;;;37.10;20.60;;;;;;;20.57;29.03;100369.20;104382;1308;72660;-87
2023/12/12 18:01:39;;;;;;;40.70;20.20;;;;;;;20.57;29.04;100379.17;104364;1308;67793;-87
2023/12/12 18:04:04;;;;;;;45.70;19.70;;;;;;;20.56;28.99;100380.40;104478;1308;67940;-87
2023/12/12 18:06:31;;;;;;;32.10;20.00;;;;;;;20.56;29.03;100380.81;104560;1308;67417;-87
2023/12/12 18:09:00;;;;;;;33.80;19.70;;;;;;;20.57;29.09;100380.59;104411;1308;67839;-87
2023/12/12 18:11:26;;;;;;;35.90;19.60;;;;;;;20.56;29.02;100384.34;104334;1308;69027;-87
2023/12/12 18:13:52;;;;;;;32.20;19.20;;;;;;;20.56;28.92;100382.95;104467;1308;67174;-87
2023/12/12 18:16:19;;;;;;;27.80;18.50;;;;;;;20.57;28.88;100383.10;104568;1308;67879;-88
2023/12/12 18:18:50;;;;;;;32.60;19.30;;;;;;;20.57;28.84;100388.73;104576;1302;68435;31
2023/12/12 18:21:18;;;;;;;33.30;20.40;;;;;;;20.57;28.81;100392.52;104756;1308;82884;-89
2023/12/12 18:23:45;;;;;;;31.10;19.50;;;;;;;20.56;28.83;100388.58;104656;1308;73841;-89
2023/12/12 18:26:12;;;;;;;29.00;19.10;;;;;;;20.56;28.82;100389.86;104742;1308;67160;-89
2023/12/12 18:28:42;;;;;;;30.10;19.00;;;;;;;20.56;28.92;100389.39;104827;1304;67157;-88
2023/12/12 18:31:09;;;;;;;26.90;18.60;;;;;;;20.57;28.87;100384.23;104675;1307;75536;-89
2023/12/12 18:36:45;;;;;;;26.20;17.90;;;;;;;20.61;29.00;100381.31;104900;1308;72521;-88
2023/12/12 18:39:12;;;;;;;24.80;18.20;;;;;;;20.63;28.71;100384.28;104705;1308;67873;-88
2023/12/12 18:41:39;;;;;;;28.60;18.40;;;;;;;20.66;28.93;100395.89;104457;1308;67077;-88
2023/12/12 18:44:04;;;;;;;26.80;20.80;;;;;;;20.69;28.71;100395.43;104612;1308;68770;-88
2023/12/12 18:46:30;;;;;;;48.60;37.90;;;;;;;20.70;28.71;100390.88;104433;1308;67736;-88
2023/12/12 18:48:56;;;;;;;54.30;35.60;;;;;;;20.69;28.78;100395.58;104658;1308;67149;-88
2023/12/12 18:51:23;;;;;;;45.80;32.20;;;;;;;20.69;28.75;100399.06;104719;1308;68368;-88
2023/12/12 18:54:10;;;;;;;41.70;29.80;;;;;;;20.70;28.71;100396.35;104735;1311;67185;-88
2023/12/12 18:56:37;;;;;;;41.00;29.00;;;;;;;20.70;28.80;100391.70;104606;1311;67062;-88
2023/12/12 18:59:04;;;;;;;36.70;26.60;;;;;;;20.72;28.78;100388.36;104593;1310;83836;-88
2023/12/12 19:01:34;;;;;;;35.20;24.40;;;;;;;20.73;28.74;100384.69;104387;1310;72575;-88
2023/12/12 19:04:00;;;;;;;34.40;23.50;;;;;;;20.74;28.54;100386.94;104562;1311;67253;-88
2023/12/12 19:06:27;;;;;;;30.70;23.50;;;;;;;20.75;28.77;100384.80;104865;1311;67861;-89
2023/12/12 19:08:53;;;;;;;29.70;22.30;;;;;;;20.76;28.63;100386.49;104751;1310;74425;-89
2023/12/12 19:11:22;;;;;;;32.50;21.50;;;;;;;20.77;28.61;100391.91;104463;1311;67997;-89
2023/12/12 19:13:47;;;;;;;39.90;26.20;;;;;;;20.79;28.63;100386.92;104512;1311;72755;-89
2023/12/12 19:16:15;;;;;;;36.50;27.00;;;;;;;20.78;28.61;100395.50;104349;1311;67845;-88
2023/12/12 19:18:41;;;;;;;42.20;31.20;;;;;;;20.79;28.62;100395.76;104427;1302;67846;-88
2023/12/12 19:21:07;;;;;;;40.50;29.00;;;;;;;20.82;28.64;100400.66;104478;1309;67772;-89
2023/12/12 19:23:35;;;;;;;39.40;28.30;;;;;;;20.84;28.60;100406.70;104586;1308;67357;-89
2023/12/12 19:26:01;;;;;;;46.70;27.40;;;;;;;20.85;28.61;100405.72;104551;1307;72325;-89
2023/12/12 19:28:27;;;;;;;33.10;25.80;;;;;;;20.87;28.62;100400.81;104688;1302;67620;-88
2023/12/12 19:30:54;;;;;;;35.80;24.50;;;;;;;20.90;28.67;100410.52;104332;1307;67225;-88
2023/12/12 19:35:56;;;;;;;31.30;23.80;;;;;;;20.95;28.56;100408.02;104719;1308;83102;-88
2023/12/12 19:38:24;;;;;;;28.10;23.10;;;;;;;20.97;28.48;100408.27;104572;1307;72803;-89
2023/12/12 19:40:50;;;;;;;28.90;23.40;;;;;;;20.99;28.54;100411.54;104851;1308;67129;-89
2023/12/12 19:43:17;;;;;;;28.00;21.90;;;;;;;21.01;28.44;100421.17;104594;1308;67177;-88
2023/12/12 19:45:46;;;;;;;33.00;23.00;;;;;;;21.02;28.44;100428.84;104429;1299;67086;-90
2023/12/12 19:51:28;;;;;;;30.20;21.40;;;;;;;21.05;28.44;100423.92;105288;1299;72123;31
2023/12/12 19:53:53;;;;;;;32.00;22.80;;;;;;;21.06;28.38;100428.16;104727;1308;67975;-88
2023/12/12 19:56:20;;;;;;;30.60;22.10;;;;;;;21.08;28.35;100428.77;104696;1307;68514;-88
2023/12/12 19:58:46;;;;;;;36.70;22.40;;;;;;;21.10;28.38;100434.72;104744;1307;67167;-87
2023/12/12 20:01:12;;;;;;;32.60;24.90;;;;;;;21.11;28.35;100432.92;104579;1308;68688;-88
2023/12/12 20:03:39;;;;;;;35.70;25.10;;;;;;;21.12;28.35;100434.77;104517;1308;67067;-88
2023/12/12 20:06:08;;;;;;;29.30;23.30;;;;;;;21.13;28.39;100441.87;104836;1308;69354;-88
2023/12/12 20:08:49;;;;;;;33.10;24.00;;;;;;;21.14;28.28;100442.27;104918;1306;67041;-88
2023/12/12 20:11:16;;;;;;;31.80;23.60;;;;;;;21.16;28.41;100441.15;104716;1308;67139;-89
2023/12/12 20:13:43;;;;;;;34.60;22.60;;;;;;;21.17;28.32;100445.45;104722;1307;68009;-88
2023/12/12 20:16:17;;;;;;;26.50;21.80;;;;;;;21.19;28.24;100448.27;104872;1308;67585;-88
2023/12/12 20:18:43;;;;;;;28.20;21.50;;;;;;;21.21;28.20;100450.86;104493;1308;67953;-89
2023/12/12 20:23:47;;;;;;;33.50;21.50;;;;;;;21.22;28.19;100440.37;104828;1308;75469;-88
2023/12/12 20:26:13;;;;;;;30.60;21.50;;;;;;;21.23;28.16;100435.25;104518;1307;67861;-88
2023/12/12 20:28:39;;;;;;;31.10;22.30;;;;;;;21.23;28.08;100429.27;104434;1314;67879;-88
2023/12/12 20:31:05;;;;;;;30.80;21.80;;;;;;;21.24;28.15;100427.02;104370;1308;68145;-88
2023/12/12 20:33:31;;;;;;;31.40;22.20;;;;;;;21.25;28.13;100427.63;104478;1302;67161;-87
2023/12/12 20:35:56;;;;;;;27.20;20.80;;;;;;;21.25;28.19;100412.48;104874;1307;67854;-88
2023/12/12 20:38:22;;;;;;;27.20;21.00;;;;;;;21.25;27.93;100412.16;104402;1307;68600;-88